SAWG/RGL METAR and TAF weather

Enter ICAO airport designator
Station Type Date Time Source
SAWG METAR 2020/07/15 01:00 UTC NOAA

SAWG 150100Z 32003KT 9999 SCT030 SCT100 M01/M02 Q1015


Station Type Date Time Source
SAWG Decoded METAR 2020/07/15 01:00 UTC NOAA

Rio Gallegos Aerodrome, Argentina (SAWG) 51-37S 069-17W 19M
Jul 14, 2020 - 09:00 PM EDT / 2020.07.15 0100 UTC
Wind: from the NW (320 degrees) at 3 MPH (3 KT):0
Visibility: greater than 7 mile(s):0
Sky conditions: partly cloudy
Temperature: 30 F (-1 C)
Dew Point: 28 F (-2 C)
Relative Humidity: 92%
Pressure (altimeter): 29.97 in. Hg (1015 hPa)
ob: SAWG 150100Z 32003KT 9999 SCT030 SCT100 M01/M02 Q1015
cycle: 1

Station Type Date Time Source
SAWG TAF 2020/07/15 00:03 UTC NOAA

TAF SAWG 142300Z 1500/1524 27010KT 9999 -SNRA SCT010 BKN020 OVC050 TX01/1518Z TNM05/1512Z
BECMG 1512/1514 23010KT NSW BKN020
BECMG 1518/1520 SCT025

Example: see airport list